Time;durP1;ratioP1;P1;durP2;ratioP2;P2;SDS_P1;SDS_P2;PMS_P1;PMS_P2;Temp;Humidity;BMP_temperature;BMP_pressure;BME280_temperature;BME280_humidity;BME280_pressure;Samples;Min_cycle;Max_cycle;Signal;HPM_P1;HPM_P2
2021/10/04 00:00:52;;;;;;;2.25;0.80;;;;;;;13.69;nan;100491.41;5071048;28;20040;-76
2021/10/04 00:03:17;;;;;;;1.25;0.70;;;;;;;13.68;nan;100495.06;5071143;28;20033;-77
2021/10/04 00:05:43;;;;;;;2.28;1.00;;;;;;;13.69;nan;100488.75;5053249;28;20517;-77
2021/10/04 00:08:08;;;;;;;;;;;;;;;13.67;nan;100493.41;5071588;28;20406;-77
2021/10/04 00:10:33;;;;;;;;;;;;;;;13.70;nan;100504.50;5072134;28;19924;-77
2021/10/04 00:12:59;;;;;;;1.70;0.90;;;;;;;13.70;nan;100498.38;5053805;28;19920;-77
2021/10/04 00:15:25;;;;;;;1.00;0.70;;;;;;;13.75;nan;100502.19;5075615;28;20422;-77
2021/10/04 00:17:51;;;;;;;1.17;0.70;;;;;;;13.74;nan;100497.88;5071470;28;20032;-76
2021/10/04 00:20:17;;;;;;;1.63;0.82;;;;;;;13.76;nan;100517.13;5071950;28;20115;-77
2021/10/04 00:22:43;;;;;;;1.05;0.82;;;;;;;13.66;nan;100508.53;5053923;28;20577;-78
2021/10/04 00:25:09;;;;;;;1.00;0.75;;;;;;;13.64;nan;100523.81;5066588;28;20324;-77
2021/10/04 00:27:35;;;;;;;1.30;0.73;;;;;;;13.63;nan;100514.19;5063041;28;20037;-78
2021/10/04 00:30:05;;;;;;;1.27;0.93;;;;;;;13.71;nan;100524.78;5053662;28;20029;-77
2021/10/04 00:32:32;;;;;;;2.53;0.98;;;;;;;13.66;nan;100523.63;5070910;28;20114;-77
2021/10/04 00:34:57;;;;;;;1.50;1.00;;;;;;;13.58;nan;100530.63;5064226;28;20024;-77
2021/10/04 00:37:23;;;;;;;5.65;1.00;;;;;;;13.56;nan;100532.66;5063306;28;20529;-77
2021/10/04 00:39:48;;;;;;;1.50;0.90;;;;;;;13.59;nan;100528.81;5063469;28;20032;-77
2021/10/04 00:42:13;;;;;;;0.75;0.60;;;;;;;13.53;nan;100525.00;5053049;28;20119;-76
2021/10/04 00:44:39;;;;;;;1.38;0.77;;;;;;;13.52;nan;100527.84;5051322;28;20044;-77
2021/10/04 00:47:04;;;;;;;1.83;0.90;;;;;;;13.50;nan;100532.50;5035773;28;20045;-77
2021/10/04 00:49:29;;;;;;;1.40;0.80;;;;;;;13.48;nan;100535.31;5075466;28;20036;-77
2021/10/04 00:51:55;;;;;;;1.95;0.80;;;;;;;13.53;nan;100521.53;5070771;28;20040;-77
2021/10/04 00:54:20;;;;;;;1.20;0.77;;;;;;;13.55;nan;100519.53;5070039;28;20037;-76
2021/10/04 00:56:45;;;;;;;1.40;0.80;;;;;;;13.47;nan;100516.91;5070152;28;20051;-77
2021/10/04 00:59:11;;;;;;;1.60;0.88;;;;;;;13.43;nan;100515.59;5070766;28;20032;-77
2021/10/04 01:01:36;;;;;;;2.33;0.77;;;;;;;13.38;nan;100511.59;5070882;28;20028;-78
2021/10/04 01:04:02;;;;;;;0.80;0.60;;;;;;;13.39;nan;100515.09;5079533;28;20590;-77
2021/10/04 01:06:28;;;;;;;1.35;0.90;;;;;;;13.46;nan;100508.09;5071983;28;20086;-77
2021/10/04 01:08:53;;;;;;;1.30;0.80;;;;;;;13.46;nan;100507.28;5052528;28;20044;-77
2021/10/04 01:11:19;;;;;;;1.92;0.90;;;;;;;13.42;nan;100509.47;5051956;28;20032;-77
2021/10/04 01:13:47;;;;;;;3.05;1.00;;;;;;;13.40;nan;100500.81;5069870;28;20024;-77
2021/10/04 01:16:12;;;;;;;1.50;0.82;;;;;;;13.40;nan;100498.16;5070605;28;20039;-77
2021/10/04 01:18:38;;;;;;;1.52;0.93;;;;;;;13.40;nan;100486.72;5051063;28;20036;-77
2021/10/04 01:21:03;;;;;;;2.03;0.85;;;;;;;13.41;nan;100483.06;5052225;28;20047;-77
2021/10/04 01:23:29;;;;;;;0.70;0.63;;;;;;;13.37;nan;100470.13;5052107;28;20039;-78
2021/10/04 01:25:56;;;;;;;1.42;0.93;;;;;;;13.41;nan;100478.56;5070014;28;20557;-78
2021/10/04 01:28:21;;;;;;;1.65;1.02;;;;;;;13.43;nan;100483.72;5068935;28;20063;-77
2021/10/04 01:30:47;;;;;;;1.85;1.13;;;;;;;13.44;nan;100485.34;5069607;28;20060;-77
2021/10/04 01:33:12;;;;;;;1.83;1.17;;;;;;;13.44;nan;100498.63;5070319;28;20056;-77
2021/10/04 01:35:38;;;;;;;2.42;0.90;;;;;;;13.43;nan;100486.38;5051635;28;20400;-77
2021/10/04 01:38:03;;;;;;;1.77;0.95;;;;;;;13.43;nan;100491.69;5051439;28;20068;-77
2021/10/04 01:40:28;;;;;;;2.75;1.10;;;;;;;13.45;nan;100495.00;5051156;28;20433;-77
2021/10/04 01:42:54;;;;;;;3.35;0.90;;;;;;;13.38;nan;100492.19;5069371;28;20033;-78
2021/10/04 01:45:22;;;;;;;1.73;0.90;;;;;;;13.32;nan;100488.41;5051496;28;20183;-77
2021/10/04 01:47:48;;;;;;;2.40;1.00;;;;;;;13.28;nan;100481.78;5071917;28;20397;-77
2021/10/04 01:50:14;;;;;;;2.25;1.05;;;;;;;13.22;nan;100490.38;5054236;28;20040;-77
2021/10/04 01:52:40;;;;;;;2.88;0.95;;;;;;;13.24;nan;100488.38;5069579;28;20032;-78
2021/10/04 01:55:06;;;;;;;1.25;0.73;;;;;;;13.15;nan;100490.22;5051149;28;20044;-78
2021/10/04 01:57:32;;;;;;;1.23;0.73;;;;;;;13.16;nan;100483.09;5069998;28;20089;-78
2021/10/04 02:00:01;;;;;;;1.10;0.70;;;;;;;13.12;nan;100489.75;5072841;28;20123;-78
2021/10/04 02:02:28;;;;;;;1.20;0.70;;;;;;;13.08;nan;100485.75;5071057;28;20040;-78
2021/10/04 02:04:54;;;;;;;1.98;0.70;;;;;;;13.14;nan;100493.06;5069641;28;20558;-78
2021/10/04 02:07:19;;;;;;;1.17;0.77;;;;;;;13.12;nan;100492.41;5051592;28;20392;-78
2021/10/04 02:09:47;;;;;;;1.83;0.75;;;;;;;13.09;nan;100501.53;5070389;28;20438;-79
2021/10/04 02:12:15;;;;;;;1.50;0.80;;;;;;;13.04;nan;100503.00;5052558;28;20043;-79
2021/10/04 02:14:41;;;;;;;0.95;0.70;;;;;;;12.95;nan;100505.69;5071608;28;20024;-80
2021/10/04 02:17:06;;;;;;;1.05;0.73;;;;;;;12.88;nan;100510.00;5073531;28;20409;-79
2021/10/04 02:19:31;;;;;;;1.88;0.80;;;;;;;12.88;nan;100520.63;5048353;28;20087;-79
2021/10/04 02:22:00;;;;;;;1.77;0.70;;;;;;;12.91;nan;100509.66;5061429;28;20034;-79
2021/10/04 02:24:29;;;;;;;2.15;0.73;;;;;;;12.93;nan;100525.44;5071207;28;20060;-79
2021/10/04 02:26:54;;;;;;;2.83;0.82;;;;;;;12.91;nan;100525.59;5074245;28;20115;-79
2021/10/04 02:29:19;;;;;;;0.88;0.60;;;;;;;12.91;nan;100525.59;5074238;28;20468;-77
2021/10/04 02:31:45;;;;;;;0.95;0.70;;;;;;;12.87;nan;100526.94;5054026;28;20048;-79
2021/10/04 02:34:10;;;;;;;0.93;0.70;;;;;;;12.86;nan;100519.97;5079821;28;20493;-79
2021/10/04 02:36:35;;;;;;;1.23;0.63;;;;;;;12.82;nan;100531.91;5073935;28;20029;-79
2021/10/04 02:39:01;;;;;;;1.50;0.70;;;;;;;12.89;nan;100527.56;5056217;28;20060;-79
2021/10/04 02:41:26;;;;;;;2.05;0.70;;;;;;;12.87;nan;100526.09;5058587;28;20037;-79
2021/10/04 02:43:52;;;;;;;1.77;0.80;;;;;;;12.81;nan;100524.94;5076301;28;20040;-79
2021/10/04 02:46:17;;;;;;;1.63;0.80;;;;;;;12.82;nan;100537.19;5058489;28;20032;-80
2021/10/04 02:48:42;;;;;;;1.38;0.80;;;;;;;12.85;nan;100517.50;5082253;28;20097;-80
2021/10/04 02:51:08;;;;;;;2.22;0.95;;;;;;;12.83;nan;100514.19;5087258;28;20026;-81
2021/10/04 02:53:33;;;;;;;1.95;0.90;;;;;;;12.82;nan;100521.28;5087060;28;20355;-80
2021/10/04 02:55:59;;;;;;;2.15;0.80;;;;;;;12.74;nan;100522.13;5085481;28;20119;-80
2021/10/04 02:58:24;;;;;;;2.08;0.90;;;;;;;12.80;nan;100517.13;5080291;28;20052;-81
2021/10/04 03:00:49;;;;;;;1.98;0.90;;;;;;;12.75;nan;100526.44;5059546;28;20029;-79
2021/10/04 03:03:15;;;;;;;2.13;0.90;;;;;;;12.73;nan;100517.00;5076415;28;20481;-80
2021/10/04 03:05:40;;;;;;;3.58;0.95;;;;;;;12.77;nan;100518.31;5076117;28;20101;-78
2021/10/04 03:08:06;;;;;;;1.83;1.00;;;;;;;12.74;nan;100529.25;5075401;28;20107;-79
2021/10/04 03:10:34;;;;;;;1.80;1.00;;;;;;;12.73;nan;100522.31;5075841;28;20033;-79
2021/10/04 03:12:59;;;;;;;2.85;1.25;;;;;;;12.72;nan;100512.66;5075570;28;20525;-79
2021/10/04 03:15:25;;;;;;;3.03;1.08;;;;;;;12.73;nan;100503.72;5059791;28;20036;-79
2021/10/04 03:17:51;;;;;;;2.70;1.25;;;;;;;12.71;nan;100503.88;5059210;28;20051;-80
2021/10/04 03:20:16;;;;;;;3.25;1.40;;;;;;;12.71;nan;100505.72;5079015;28;20036;-79
2021/10/04 03:22:41;;;;;;;3.15;1.35;;;;;;;12.74;nan;100516.81;5059582;28;20040;-78
2021/10/04 03:25:07;;;;;;;1.92;1.20;;;;;;;12.69;nan;100532.41;5080627;28;20036;-79
2021/10/04 03:27:33;;;;;;;1.95;1.05;;;;;;;12.68;nan;100535.22;5079352;28;20511;-80
2021/10/04 03:29:58;;;;;;;2.45;1.20;;;;;;;12.72;nan;100539.19;5058654;28;20040;-79
2021/10/04 03:32:24;;;;;;;2.25;1.10;;;;;;;12.67;nan;100545.00;5060192;28;20040;-78
2021/10/04 03:34:49;;;;;;;2.45;1.55;;;;;;;12.70;nan;100552.66;5077533;28;20036;-79
2021/10/04 03:37:16;;;;;;;2.00;1.45;;;;;;;12.69;nan;100560.75;5079263;28;20394;-79
2021/10/04 03:39:41;;;;;;;3.03;1.40;;;;;;;12.67;nan;100568.06;5090893;28;20028;-79
2021/10/04 03:42:07;;;;;;;3.53;1.50;;;;;;;12.59;nan;100568.88;5059282;28;20042;-79
2021/10/04 03:44:32;;;;;;;2.42;1.30;;;;;;;12.59;nan;100565.41;5075922;28;20036;-79
2021/10/04 03:46:57;;;;;;;1.75;1.40;;;;;;;12.57;nan;100570.03;5077105;28;20028;-79
2021/10/04 03:49:23;;;;;;;1.63;1.20;;;;;;;12.46;nan;100565.88;5084362;28;20170;-79
2021/10/04 03:51:48;;;;;;;2.95;1.60;;;;;;;12.51;nan;100572.34;5076751;28;20052;-78
2021/10/04 03:54:14;;;;;;;1.80;1.48;;;;;;;12.57;nan;100567.38;5079744;28;20094;-78
2021/10/04 03:56:39;;;;;;;3.70;1.63;;;;;;;;;;5060718;28;20059;-78
2021/10/04 03:59:04;;;;;;;2.23;1.40;;;;;;;12.48;nan;100416.19;5076444;28;20494;-78
2021/10/04 04:01:29;;;;;;;2.42;1.45;;;;;;;;;;5061964;28;20340;-79
2021/10/04 04:03:55;;;;;;;2.33;1.50;;;;;;;;;;5080394;28;20043;-78
2021/10/04 04:06:20;;;;;;;2.67;1.45;;;;;;;;;;5063312;28;20202;-80
2021/10/04 04:08:45;;;;;;;2.03;1.30;;;;;;;;;;5064088;28;20123;-78
2021/10/04 04:11:11;;;;;;;2.72;1.70;;;;;;;;;;5089617;28;20335;-79
2021/10/04 04:13:36;;;;;;;1.98;1.35;;;;;;;;;;5084270;28;20048;-79
2021/10/04 04:16:01;;;;;;;2.00;1.33;;;;;;;;;;5083963;28;20040;-79
2021/10/04 04:18:26;;;;;;;5.00;1.65;;;;;;;;;;5081219;28;20519;-78
2021/10/04 04:20:52;;;;;;;3.00;1.80;;;;;;;;;;5083061;28;20036;-79
2021/10/04 04:23:18;;;;;;;2.47;1.70;;;;;;;;;;5083048;28;20382;-78
2021/10/04 04:25:43;;;;;;;4.10;1.90;;;;;;;;;;5082241;28;20033;-78
2021/10/04 04:28:08;;;;;;;3.33;1.67;;;;;;;;;;5065243;28;20060;-79
2021/10/04 04:30:33;;;;;;;2.72;2.00;;;;;;;;;;5082588;28;20341;-78
2021/10/04 04:32:59;;;;;;;2.58;1.80;;;;;;;;;;5081484;28;20040;-78
2021/10/04 04:35:24;;;;;;;2.38;1.75;;;;;;;;;;5081444;28;20044;-78
2021/10/04 04:37:49;;;;;;;4.43;2.17;;;;;;;;;;5062123;28;20032;-77
2021/10/04 04:40:15;;;;;;;3.38;2.22;;;;;;;;;;5058836;28;20098;-77
2021/10/04 04:42:44;;;;;;;3.10;2.15;;;;;;;;;;5075996;28;20154;-77
2021/10/04 04:45:11;;;;;;;3.30;2.20;;;;;;;;;;5077802;28;20031;-78
2021/10/04 04:47:36;;;;;;;3.50;2.20;;;;;;;;;;5061525;28;20523;-78
2021/10/04 04:50:02;;;;;;;2.83;2.10;;;;;;;;;;5063847;28;20111;-77
2021/10/04 04:52:27;;;;;;;3.47;2.83;;;;;;;;;;5071233;28;20041;-77
2021/10/04 04:54:53;;;;;;;3.83;2.95;;;;;;;;;;5053292;28;20043;-77
2021/10/04 04:57:18;;;;;;;3.80;3.10;;;;;;;;;;5071369;28;20036;-77
2021/10/04 04:59:43;;;;;;;3.83;3.00;;;;;;;;;;5071566;28;20267;-77
2021/10/04 05:02:08;;;;;;;3.73;3.20;;;;;;;;;;5070806;28;20051;-77
2021/10/04 05:04:34;;;;;;;3.75;2.85;;;;;;;;;;5070707;28;20635;-77
2021/10/04 05:06:59;;;;;;;3.67;3.27;;;;;;;;;;5071483;28;20516;-77
2021/10/04 05:09:24;;;;;;;4.63;3.20;;;;;;;;;;5075253;28;20271;-76
2021/10/04 05:11:49;;;;;;;3.33;3.03;;;;;;;;;;5056279;28;20286;-77
2021/10/04 05:14:15;;;;;;;3.75;2.65;;;;;;;;;;5073054;28;20040;-77
2021/10/04 05:16:40;;;;;;;4.10;3.22;;;;;;;;;;5074402;28;20252;-77
2021/10/04 05:19:05;;;;;;;5.30;3.30;;;;;;;;;;5070761;28;20120;-76
2021/10/04 05:21:30;;;;;;;4.60;3.50;;;;;;;;;;5082417;28;20294;-76
2021/10/04 05:23:56;;;;;;;3.83;2.93;;;;;;;12.35;nan;100511.34;5072963;28;20489;-77
2021/10/04 05:26:21;;;;;;;5.07;3.17;;;;;;;12.40;nan;100502.88;5089955;28;20709;-77
2021/10/04 05:28:46;;;;;;;5.38;3.90;;;;;;;;;;5090732;28;20038;-76
2021/10/04 05:31:12;;;;;;;5.07;3.70;;;;;;;;;;5069495;28;20102;-77
2021/10/04 05:33:37;;;;;;;5.23;3.40;;;;;;;;;;5071603;28;20340;-77
2021/10/04 05:36:06;;;;;;;4.22;2.90;;;;;;;;;;5070040;28;20537;-77
2021/10/04 05:38:31;;;;;;;2.97;2.30;;;;;;;;;;5069822;28;20048;-77
2021/10/04 05:40:57;;;;;;;3.50;2.53;;;;;;;;;;5052584;28;20447;-76
2021/10/04 05:43:22;;;;;;;5.13;3.03;;;;;;;;;;5069767;28;20032;-76
2021/10/04 05:45:48;;;;;;;6.68;3.00;;;;;;;;;;5070048;28;20032;-77
2021/10/04 05:48:13;;;;;;;3.78;2.83;;;;;;;;;;5075256;28;20036;-76
2021/10/04 05:50:38;;;;;;;5.83;3.70;;;;;;;;;;5072726;28;20501;-76
2021/10/04 05:53:03;;;;;;;4.23;3.10;;;;;;;;;;5068010;28;20040;-76
2021/10/04 05:55:29;;;;;;;4.77;3.60;;;;;;;;;;5068958;28;20028;-76
2021/10/04 05:57:54;;;;;;;4.53;3.40;;;;;;;;;;5070992;28;20036;-79
2021/10/04 06:00:19;;;;;;;6.53;4.10;;;;;;;;;;5053993;28;20270;-79
2021/10/04 06:02:44;;;;;;;4.03;3.37;;;;;;;;;;5074531;28;20267;-79
2021/10/04 06:05:10;;;;;;;4.63;3.60;;;;;;;;;;5075895;28;20582;-80
2021/10/04 06:07:36;;;;;;;4.82;3.53;;;;;;;;;;5094771;28;20270;-80
2021/10/04 06:10:01;;;;;;;4.55;3.40;;;;;;;;;;5063603;28;20040;-80
2021/10/04 06:12:26;;;;;;;5.30;3.33;;;;;;;;;;5073874;28;20047;-79
2021/10/04 06:14:55;;;;;;;4.57;3.20;;;;;;;;;;5078062;28;20523;-79
2021/10/04 06:17:21;;;;;;;4.45;3.15;;;;;;;12.38;nan;100643.59;5056183;28;20037;-79
2021/10/04 06:19:46;;;;;;;4.97;3.08;;;;;;;;;;5073804;28;20127;-80
2021/10/04 06:22:11;;;;;;;3.80;3.15;;;;;;;;;;5074616;28;20044;-79
2021/10/04 06:24:37;;;;;;;4.70;3.40;;;;;;;;;;5074511;28;20065;-79
2021/10/04 06:27:02;;;;;;;4.13;3.07;;;;;;;;;;5056203;28;20056;-79
2021/10/04 06:29:27;;;;;;;4.80;3.50;;;;;;;;;;5075397;28;20115;-80
2021/10/04 06:31:52;;;;;;;3.90;3.30;;;;;;;;;;5057374;28;20052;-80
2021/10/04 06:34:18;;;;;;;4.33;3.00;;;;;;;;;;5071810;28;20044;-80
2021/10/04 06:36:43;;;;;;;4.30;2.60;;;;;;;;;;5096162;28;20125;-80
2021/10/04 06:39:08;;;;;;;3.67;2.50;;;;;;;;;;5078715;28;20303;-81
2021/10/04 06:41:33;;;;;;;4.00;2.72;;;;;;;;;;5077137;28;20052;-80
2021/10/04 06:43:59;;;;;;;3.58;2.53;;;;;;;;;;5074833;28;20432;-80
2021/10/04 06:46:24;;;;;;;3.22;2.40;;;;;;;;;;5075555;28;20171;-80
2021/10/04 06:48:49;;;;;;;3.40;2.57;;;;;;;;;;5057219;28;20040;-80
2021/10/04 06:51:14;;;;;;;3.70;2.60;;;;;;;12.48;nan;100649.56;5074643;28;20036;-79
2021/10/04 06:53:39;;;;;;;3.58;2.50;;;;;;;;;;5074465;28;20036;-79
2021/10/04 06:56:04;;;;;;;3.80;2.83;;;;;;;;;;5074706;28;20112;-80
2021/10/04 06:58:30;;;;;;;3.10;2.43;;;;;;;;;;5057393;28;20544;-80
2021/10/04 07:00:55;;;;;;;4.20;2.60;;;;;;;;;;5075083;28;20033;-80
2021/10/04 07:03:21;;;;;;;4.15;3.00;;;;;;;;;;5057423;28;20041;-80
2021/10/04 07:05:47;;;;;;;3.65;2.67;;;;;;;;;;5074403;28;20080;-80
2021/10/04 07:08:14;;;;;;;4.15;2.70;;;;;;;;;;5073814;28;20469;-80
2021/10/04 07:10:39;;;;;;;4.27;2.90;;;;;;;;;;5073658;28;20045;-79
2021/10/04 07:13:05;;;;;;;4.18;3.20;;;;;;;;;;5077132;28;20295;-80
2021/10/04 07:15:30;;;;;;;4.30;2.80;;;;;;;;;;5071748;28;20095;-80
2021/10/04 07:17:55;;;;;;;3.17;2.45;;;;;;;;;;5092564;28;20085;-80
2021/10/04 07:20:21;;;;;;;4.37;3.10;;;;;;;;;;5059714;28;20036;-80
2021/10/04 07:22:46;;;;;;;3.90;3.00;;;;;;;;;;5077480;28;20036;-79
2021/10/04 07:25:12;;;;;;;4.15;2.90;;;;;;;;;;5059260;28;20045;-79
2021/10/04 07:27:38;;;;;;;3.17;2.55;;;;;;;;;;5076261;28;20045;-79
2021/10/04 07:30:04;;;;;;;6.63;3.28;;;;;;;;;;5077872;28;20493;-79
2021/10/04 07:32:29;;;;;;;3.35;2.42;;;;;;;;;;5076105;28;20037;-79
2021/10/04 07:34:54;;;;;;;3.53;2.63;;;;;;;;;;5079603;28;20028;-79
2021/10/04 07:37:19;;;;;;;3.27;2.43;;;;;;;;;;5097271;28;20089;-79
2021/10/04 07:39:45;;;;;;;3.40;2.27;;;;;;;;;;5077345;28;20492;-80
2021/10/04 07:42:10;;;;;;;2.80;2.27;;;;;;;;;;5077058;28;20036;-79
2021/10/04 07:44:35;;;;;;;3.10;2.55;;;;;;;;;;5076499;28;20275;-79
2021/10/04 07:47:02;;;;;;;3.13;2.10;;;;;;;;;;5058770;28;20033;-79
2021/10/04 07:49:28;;;;;;;3.30;1.83;;;;;;;;;;5076241;28;20070;-79
2021/10/04 07:51:53;;;;;;;2.72;2.00;;;;;;;;;;5077488;28;20098;-79
2021/10/04 07:54:19;;;;;;;3.20;2.00;;;;;;;;;;5075748;28;20040;-79
2021/10/04 07:56:44;;;;;;;2.58;2.03;;;;;;;;;;5075651;28;20455;-79
2021/10/04 07:59:09;;;;;;;2.35;1.92;;;;;;;;;;5075902;28;20493;-79
2021/10/04 08:01:35;;;;;;;3.10;2.00;;;;;;;;;;5058922;28;20037;-79
2021/10/04 08:04:00;;;;;;;3.20;1.70;;;;;;;;;;5075933;28;20063;-79
2021/10/04 08:06:26;;;;;;;2.87;2.00;;;;;;;;;;5076140;28;20374;-79
2021/10/04 08:08:52;;;;;;;2.20;1.70;;;;;;;;;;5057749;28;20032;-79
2021/10/04 08:11:17;;;;;;;2.92;1.90;;;;;;;;;;5075991;28;20044;-79
2021/10/04 08:13:45;;;;;;;3.53;1.97;;;;;;;;;;5057587;28;20087;-79
2021/10/04 08:16:10;;;;;;;2.50;1.83;;;;;;;;;;5093241;28;20051;-79
2021/10/04 08:18:35;;;;;;;3.47;1.37;;;;;;;;;;5068689;28;20040;-79
2021/10/04 08:21:01;;;;;;;2.57;1.63;;;;;;;;;;5076552;28;20359;-79
2021/10/04 08:23:26;;;;;;;2.80;1.63;;;;;;;;;;5057420;28;20282;-79
2021/10/04 08:25:51;;;;;;;1.93;1.30;;;;;;;;;;5075525;28;20275;-79
2021/10/04 08:28:16;;;;;;;2.70;1.40;;;;;;;;;;5076499;28;20036;-79
2021/10/04 08:30:41;;;;;;;1.90;1.40;;;;;;;;;;5057708;28;20296;-79
2021/10/04 08:33:07;;;;;;;2.67;1.50;;;;;;;;;;5062013;28;20091;-79
2021/10/04 08:35:32;;;;;;;2.77;1.60;;;;;;;;;;5077709;28;20036;-79
2021/10/04 08:37:57;;;;;;;2.65;1.50;;;;;;;;;;5073871;28;20052;-79
2021/10/04 08:40:23;;;;;;;2.87;1.30;;;;;;;;;;5075159;28;20032;-79
2021/10/04 08:42:48;;;;;;;1.45;1.13;;;;;;;;;;5083330;28;20278;-79
2021/10/04 08:45:13;;;;;;;1.97;1.30;;;;;;;;;;5064500;28;20040;-79
2021/10/04 08:47:40;;;;;;;3.20;1.30;;;;;;;;;;5078994;28;20044;-80
2021/10/04 08:50:06;;;;;;;4.75;1.30;;;;;;;;;;5073778;28;20029;-78
2021/10/04 08:52:31;;;;;;;2.03;1.23;;;;;;;;;;5073253;28;20398;-79
2021/10/04 08:54:56;;;;;;;1.57;1.07;;;;;;;;;;5073867;28;20194;-79
2021/10/04 08:57:21;;;;;;;1.90;1.10;;;;;;;;;;5073925;28;20039;-79
2021/10/04 08:59:47;;;;;;;1.30;1.00;;;;;;;;;;5073081;28;20520;-79
2021/10/04 09:02:18;;;;;;;2.30;1.30;;;;;;;;;;5071069;28;20644;-79
2021/10/04 09:04:44;;;;;;;1.80;1.20;;;;;;;;;;5062729;28;20041;-79
2021/10/04 09:07:09;;;;;;;1.50;1.00;;;;;;;;;;5071413;28;20505;-79
2021/10/04 09:09:34;;;;;;;2.63;1.37;;;;;;;;;;5072755;28;20138;-78
2021/10/04 09:11:59;;;;;;;2.73;1.73;;;;;;;;;;5071928;28;20133;-79
2021/10/04 09:14:27;;;;;;;2.40;1.87;;;;;;;;;;5075439;28;20505;-79
2021/10/04 09:16:55;;;;;;;2.35;2.10;;;;;;;;;;5057926;28;20044;-79
2021/10/04 09:19:23;;;;;;;3.05;2.20;;;;;;;;;;5058373;28;20123;-79
2021/10/04 09:22:02;;;;;;;3.00;2.30;;;;;;;;;;5071923;28;20454;-79
2021/10/04 09:24:27;;;;;;;3.13;2.83;;;;;;;;;;5071252;28;20355;-79
2021/10/04 09:26:52;;;;;;;3.63;2.87;;;;;;;;;;5052977;28;20040;-79
2021/10/04 09:29:19;;;;;;;2.80;2.50;;;;;;;;;;5053124;28;20083;-79
2021/10/04 09:31:44;;;;;;;3.85;2.80;;;;;;;;;;5071450;28;20278;-79
2021/10/04 09:34:13;;;;;;;3.22;2.83;;;;;;;;;;5071893;28;20037;-79
2021/10/04 09:36:39;;;;;;;4.70;2.85;;;;;;;;;;5053815;28;20028;-79
2021/10/04 09:39:11;;;;;;;3.63;2.70;;;;;;;;;;5054071;28;20033;-79
2021/10/04 09:41:36;;;;;;;3.42;2.50;;;;;;;13.23;nan;100643.41;5052776;28;20389;-79
2021/10/04 09:44:03;;;;;;;3.17;2.60;;;;;;;;;;5070367;28;20029;-79
2021/10/04 09:46:28;;;;;;;2.90;2.00;;;;;;;;;;5072054;28;20032;-79
2021/10/04 09:49:00;;;;;;;3.77;2.20;;;;;;;;;;5072541;28;20443;-79
2021/10/04 09:51:25;;;;;;;2.35;1.83;;;;;;;;;;5070381;28;20071;-79
2021/10/04 09:54:07;;;;;;;2.57;2.17;;;;;;;;;;5072564;28;20098;-79
2021/10/04 09:56:32;;;;;;;2.60;2.00;;;;;;;;;;5052961;28;20041;-79
2021/10/04 09:58:58;;;;;;;2.43;2.00;;;;;;;;;;5071221;28;20079;-79
2021/10/04 10:01:24;;;;;;;3.53;2.17;;;;;;;;;;5070775;28;20060;-79
2021/10/04 10:03:49;;;;;;;3.05;2.00;;;;;;;;;;5072684;28;20119;-79
2021/10/04 10:06:14;;;;;;;3.13;2.20;;;;;;;;;;5076392;28;20033;-79
2021/10/04 10:08:40;;;;;;;3.25;2.17;;;;;;;;;;5070042;28;20036;-79
2021/10/04 10:11:06;;;;;;;3.95;2.40;;;;;;;;;;5052330;28;20108;-78
2021/10/04 10:13:31;;;;;;;4.22;2.65;;;;;;;;;;5070599;28;20386;-79
2021/10/04 10:16:01;;;;;;;3.58;2.40;;;;;;;;;;5058573;28;20067;-80
2021/10/04 10:18:39;;;;;;;3.58;2.00;;;;;;;;;;5056130;28;20062;-79
2021/10/04 10:21:06;;;;;;;3.35;1.90;;;;;;;;;;5071038;28;20077;-79
2021/10/04 10:23:50;;;;;;;3.05;1.85;;;;;;;;;;5052921;28;20051;-78
2021/10/04 10:26:27;;;;;;;3.72;1.70;;;;;;;13.83;nan;100633.41;5069625;28;20221;-79
2021/10/04 10:29:08;;;;;;;1.95;1.40;;;;;;;;;;5052584;28;20065;-79
2021/10/04 10:31:51;;;;;;;1.83;1.30;;;;;;;;;;5062315;28;20040;-79
2021/10/04 10:34:41;;;;;;;2.33;1.42;;;;;;;13.74;nan;100620.09;5065834;28;20124;-79
2021/10/04 10:37:06;;;;;;;3.35;1.70;;;;;;;;;;5070914;28;20508;-79
2021/10/04 10:39:43;;;;;;;2.25;1.65;;;;;;;13.69;nan;100611.81;5071043;28;20040;-78
2021/10/04 10:42:16;;;;;;;1.90;1.20;;;;;;;;;;5071724;28;20436;-80
2021/10/04 10:44:56;;;;;;;1.70;1.10;;;;;;;;;;5053222;28;20028;-79
2021/10/04 10:47:37;;;;;;;1.75;1.15;;;;;;;;;;5073723;28;20581;-79
2021/10/04 10:50:08;;;;;;;1.55;1.00;;;;;;;;;;5066686;28;20028;-79
2021/10/04 10:52:33;;;;;;;;;;;;;;;;;;5064696;28;20451;-79
2021/10/04 10:55:00;;;;;;;1.58;1.20;;;;;;;;;;5056031;28;20289;-79
2021/10/04 10:58:01;;;;;;;2.00;1.00;;;;;;;;;;5074613;28;20094;-79
2021/10/04 11:00:28;;;;;;;1.40;0.90;;;;;;;;;;5000479;28;20043;-79
2021/10/04 11:02:54;;;;;;;1.38;0.98;;;;;;;;;;5064406;28;20039;-78
2021/10/04 11:05:38;;;;;;;1.13;0.93;;;;;;;;;;5074814;28;20032;-79
2021/10/04 11:08:04;;;;;;;1.38;0.82;;;;;;;;;;5075425;28;20045;-79
2021/10/04 11:10:29;;;;;;;1.58;0.90;;;;;;;;;;5063556;28;20029;-79
2021/10/04 11:13:14;;;;;;;2.30;1.00;;;;;;;14.06;nan;100618.34;5081545;28;20600;-80
2021/10/04 11:15:40;;;;;;;1.48;0.93;;;;;;;;;;5059221;28;20069;-79
2021/10/04 11:18:07;;;;;;;1.52;0.80;;;;;;;;;;5074069;28;20051;-79
2021/10/04 11:20:32;;;;;;;1.00;0.80;;;;;;;;;;5056286;28;20047;-78
2021/10/04 11:23:11;;;;;;;1.17;0.90;;;;;;;;;;5054906;28;20036;-78
2021/10/04 11:25:53;;;;;;;1.10;0.90;;;;;;;;;;5074257;28;20032;-79
2021/10/04 11:28:19;;;;;;;1.52;0.80;;;;;;;;;;5069072;28;20032;-79
2021/10/04 11:30:52;;;;;;;1.25;0.90;;;;;;;14.15;nan;100611.16;5065101;28;20040;-79
2021/10/04 11:33:17;;;;;;;1.88;0.82;;;;;;;14.22;nan;100777.84;5075910;28;20032;-79
2021/10/04 11:36:03;;;;;;;0.93;0.70;;;;;;;;;;5075090;28;20042;-79
2021/10/04 11:38:29;;;;;;;1.20;0.75;;;;;;;;;;5074691;28;20123;-79
2021/10/04 11:40:54;;;;;;;1.10;0.70;;;;;;;;;;5065701;28;20032;-79
2021/10/04 11:43:20;;;;;;;1.60;0.80;;;;;;;;;;5074837;28;20304;-81
2021/10/04 11:45:46;;;;;;;1.90;0.90;;;;;;;;;;5079715;28;20032;-79
2021/10/04 11:48:25;;;;;;;1.95;0.90;;;;;;;;;;5056853;28;20468;-79
2021/10/04 11:50:51;;;;;;;1.33;0.70;;;;;;;;;;5056816;28;20048;-79
2021/10/04 11:53:16;;;;;;;1.30;0.90;;;;;;;;;;5080215;28;20063;-80
2021/10/04 11:55:41;;;;;;;1.45;1.00;;;;;;;14.26;nan;100628.59;5059554;28;20550;-80
2021/10/04 11:58:13;;;;;;;1.00;0.80;;;;;;;;;;5073942;28;20032;-79
2021/10/04 12:00:45;;;;;;;1.80;0.93;;;;;;;;;;5074998;28;20096;-79
2021/10/04 12:03:10;;;;;;;1.77;1.00;;;;;;;;;;5074783;28;20028;-79
2021/10/04 12:05:35;;;;;;;1.17;0.70;;;;;;;14.35;nan;100640.81;5074455;28;20045;-80
2021/10/04 12:08:05;;;;;;;1.98;0.90;;;;;;;;;;5056361;28;20277;-80
2021/10/04 12:10:39;;;;;;;1.25;0.80;;;;;;;14.41;nan;100622.34;5055084;28;20405;-80
2021/10/04 12:13:07;;;;;;;1.42;0.80;;;;;;;14.27;nan;100768.53;5066787;28;20287;-80
2021/10/04 12:15:32;;;;;;;1.88;1.10;;;;;;;;;;5074179;28;20024;-80
2021/10/04 12:17:57;;;;;;;2.03;1.00;;;;;;;14.24;nan;100636.72;5056118;28;20548;-80
2021/10/04 12:20:23;;;;;;;1.55;1.05;;;;;;;;;;5056664;28;20494;-79
2021/10/04 12:22:49;;;;;;;2.10;1.10;;;;;;;;;;5076247;28;20448;-80
2021/10/04 12:25:24;;;;;;;1.77;1.00;;;;;;;;;;5074329;28;20044;-79
2021/10/04 12:28:06;;;;;;;1.35;1.00;;;;;;;;;;5074644;28;20178;-79
2021/10/04 12:31:04;;;;;;;1.33;0.90;;;;;;;;;;5069554;28;20396;-79
2021/10/04 12:33:42;;;;;;;1.90;0.90;;;;;;;;;;5034419;28;20089;-79
2021/10/04 12:36:08;;;;;;;1.90;1.15;;;;;;;;;;5074635;28;20037;-80
2021/10/04 12:38:33;;;;;;;1.87;1.00;;;;;;;;;;5073864;28;20512;-80
2021/10/04 12:41:00;;;;;;;3.97;1.80;;;;;;;;;;5055372;28;20275;-79
2021/10/04 12:43:27;;;;;;;2.15;1.33;;;;;;;;;;5056171;28;20052;-78
2021/10/04 12:46:14;;;;;;;2.17;1.00;;;;;;;14.28;nan;100760.41;5062892;28;20020;-79
2021/10/04 12:48:41;;;;;;;1.20;0.82;;;;;;;;;;5055846;28;20108;-79
2021/10/04 12:51:10;;;;;;;1.25;0.82;;;;;;;;;;5073838;28;20340;-79
2021/10/04 12:53:47;;;;;;;1.50;1.10;;;;;;;14.52;nan;100825.19;5058965;28;20082;-81
2021/10/04 12:56:19;;;;;;;2.00;1.30;;;;;;;14.53;nan;100817.03;5059299;28;20051;-79
2021/10/04 12:58:58;;;;;;;1.70;1.02;;;;;;;14.68;nan;100819.00;5055229;28;20032;-79
2021/10/04 13:01:24;;;;;;;1.50;0.90;;;;;;;14.71;nan;100819.50;5072980;28;20075;-78
2021/10/04 13:04:05;;;;;;;2.35;1.05;;;;;;;14.76;nan;100822.47;5057319;28;20513;-79
2021/10/04 13:06:33;;;;;;;1.27;0.93;;;;;;;14.84;nan;100816.28;5077473;28;20508;-79
2021/10/04 13:09:01;;;;;;;1.13;0.80;;;;;;;14.95;nan;100817.75;5071642;28;20040;-79
2021/10/04 13:11:27;;;;;;;1.60;0.90;;;;;;;14.96;nan;100819.41;5073559;28;20036;-81
2021/10/04 13:13:53;;;;;;;1.23;0.90;;;;;;;15.02;nan;100819.56;5054115;28;20501;-79
2021/10/04 13:16:19;;;;;;;1.42;0.80;;;;;;;14.94;nan;100818.75;5071899;28;20549;-79
2021/10/04 13:18:45;;;;;;;1.58;1.10;;;;;;;15.04;nan;100804.22;5074143;28;20111;-79
2021/10/04 13:21:10;;;;;;;1.27;0.77;;;;;;;15.01;nan;100799.22;5054914;28;20398;-79